Falls Mill, West Virginia
Current Conditions -  °F | °C
As of 3:51 PM on Friday 31 Oct 2014 (Local Time) from KBKW Reporting Station
Light Rain Light Rain  
Wind Chill:   Ceiling: 3200
Heat Index:   Visibility: 10mi
Dew Point:   Wind: 8mph
Humidity: 65%   Direction: 260°W
Pressure: 29.82"   Gusts: NA
Location:  38.2586°N, 80.9505°W
Report Text: KBKW 311951Z AUTO 26007KT 10SM -RA OVC032 07/01 A2982 RMK AO2 RAB40 SLP113 P0000 T00670006 TSNO
Loading
Personal Weather Stations






























Interactive Weather Map
Tropical Storm Tracking
New forecast layout! Learn more

10-Day Weather Forecast

Advertisements
Track Severe Weather on mobile